Terminal Aerodrome Forecast
Issued by NWS Bismarck, ND

Home | Current Version | Previous Version | Graphics & Text | Print | Product List | Glossary On
Versions: 1 2 3 4 5 6 7 8 9 10 11 12 13 14 15 16 17 18
000
FTUS43 KBIS 251100
TAFBIS
TAF
KBIS 251134Z 2512/2612 31012KT P6SM BKN025
      TEMPO 2512/2513 SCT025
     FM251300 31012G22KT P6SM SKC
     FM251900 29015KT P6SM SKC
     FM260200 24005KT P6SM SKC=

USA.gov is the U.S. government's official web portal to all federal, state and local government web resources and services.